Time;durP1;ratioP1;P1;durP2;ratioP2;P2;SDS_P1;SDS_P2;PMS_P1;PMS_P2;Temp;Humidity;BMP_temperature;BMP_pressure;BME280_temperature;BME280_humidity;BME280_pressure;Samples;Min_cycle;Max_cycle;Signal;HPM_P1;HPM_P2
2023/05/10 00:01:03;;;;;;;;;;;;;;;12.47;100.00;100759.41;5044387;28;1246;-77
2023/05/10 00:03:28;;;;;;;;;;;;;;;12.47;100.00;100764.59;5022840;28;1347;-78
2023/05/10 00:05:53;;;;;;;;;;;;;;;12.46;100.00;100752.56;5027909;28;1030;-78
2023/05/10 00:08:19;;;;;;;;;;;;;;;12.46;100.00;100757.78;5016098;28;1230;-77
2023/05/10 00:10:44;;;;;;;;;;;;;;;12.45;100.00;100750.94;5022279;28;1283;-78
2023/05/10 00:13:09;;;;;;;;;;;;;;;12.44;100.00;100757.06;5021480;28;1225;-77
2023/05/10 00:15:34;;;;;;;;;;;;;;;12.43;100.00;100752.81;5028595;28;1077;-78
2023/05/10 00:18:00;;;;;;;;;;;;;;;12.41;100.00;100758.19;5021401;28;1906;-78
2023/05/10 00:20:25;;;;;;;;;;;;;;;12.41;100.00;100754.75;5020918;28;1197;-77
2023/05/10 00:22:50;;;;;;;;;;;;;;;12.40;100.00;100758.31;5023414;28;1247;-77
2023/05/10 00:25:16;;;;;;;;;;;;;;;12.40;100.00;100758.31;5023441;28;1307;-76
2023/05/10 00:27:41;;;;;;;;;;;;;;;12.39;100.00;100756.69;5020889;28;1257;-78
2023/05/10 00:30:07;;;;;;;;;;;;;;;12.40;100.00;100753.13;5027276;28;1161;-78
2023/05/10 00:32:33;;;;;;;;;;;;;;;12.41;100.00;100759.97;5020934;28;1443;-76
2023/05/10 00:34:58;;;;;;;;;;;;;;;12.39;100.00;100756.69;5019863;28;1577;-78
2023/05/10 00:37:23;;;;;;;;;;;;;;;12.38;100.00;100755.03;5023349;28;1894;-77
2023/05/10 00:39:49;;;;;;;;;;;;;;;12.37;100.00;100755.97;5023999;28;1189;-76
2023/05/10 00:42:14;;;;;;;;;;;;;;;12.38;100.00;100753.25;5024521;28;1493;-77
2023/05/10 00:44:39;;;;;;;;;;;;;;;12.38;100.00;100750.63;5022573;28;1209;-78
2023/05/10 00:47:05;;;;;;;;;;;;;;;12.39;100.00;100747.09;5033156;28;1324;-76
2023/05/10 00:49:31;;;;;;;;;;;;;;;12.40;100.00;100753.13;5023803;28;1350;-77
2023/05/10 00:51:56;;;;;;;;;;;;;;;12.38;100.00;100749.81;5017728;28;1279;-77
2023/05/10 00:54:21;;;;;;;;;;;;;;;12.40;100.00;100747.91;5017712;28;1191;-77
2023/05/10 00:56:48;;;;;;;;;;;;;;;12.37;100.00;100750.78;5021174;28;2217;-77
2023/05/10 00:59:16;;;;;;;;;;;;;;;12.36;100.00;100755.16;5026602;28;1369;-77
2023/05/10 01:01:41;;;;;;;;;;;;;;;12.36;100.00;100746.53;5023599;28;1539;-77
2023/05/10 01:04:06;;;;;;;;;;;;;;;12.35;100.00;100750.13;5025053;28;1389;-77
2023/05/10 01:06:32;;;;;;;;;;;;;;;12.34;100.00;100749.28;5022409;28;1626;-77
2023/05/10 01:08:57;;;;;;;;;;;;;;;12.34;100.00;100754.50;5027136;28;1347;-77
2023/05/10 01:11:22;;;;;;;;;;;;;;;12.34;100.00;100758.88;5020984;28;1114;-77
2023/05/10 01:13:52;;;;;;;;;;;;;;;12.35;100.00;100755.31;5022710;28;1212;-77
2023/05/10 01:16:17;;;;;;;;;;;;;;;12.36;100.00;100749.16;5020246;28;1910;-77
2023/05/10 01:18:43;;;;;;;;;;;;;;;12.33;100.00;100755.47;5019288;28;1419;-77
2023/05/10 01:21:23;;;;;;;;;;;;;;;12.36;100.00;100756.94;5021244;28;1264;-76
2023/05/10 01:24:03;;;;;;;;;;;;;;;12.37;100.00;100753.38;5021392;28;1353;-77
2023/05/10 01:26:28;;;;;;;;;;;;;;;12.33;100.00;100746.81;5024707;28;1165;-76
2023/05/10 01:29:00;;;;;;;;;;;;;;;12.34;100.00;100749.28;5021704;28;1143;-77
2023/05/10 01:31:45;;;;;;;;;;;;;;;12.33;100.00;100759.81;5020257;28;1181;-77
2023/05/10 01:34:20;;;;;;;;;;;;;;;12.30;100.00;100757.50;5005416;28;1308;-77
2023/05/10 01:36:51;;;;;;;;;;;;;;;12.27;100.00;100757.78;5023875;28;1902;-77
2023/05/10 01:39:45;;;;;;;;;;;;;;;12.23;100.00;100747.66;5020075;28;1232;-77
2023/05/10 01:42:12;;;;;;;;;;;;;;;12.23;100.00;100745.06;5007338;28;1229;-77
2023/05/10 01:44:42;;;;;;;;;;;;;;;12.21;100.00;100759.13;5020231;28;1297;-77
2023/05/10 01:47:10;;;;;;;;;;;;;;;12.18;100.00;100759.44;5018800;28;1492;-77
2023/05/10 01:49:38;;;;;;;;;;;;;;;12.14;100.00;100758.88;5021282;28;1349;-76
2023/05/10 01:52:06;;;;;;;;;;;;;;;12.13;100.00;100757.22;5021760;28;1240;-77
2023/05/10 01:54:33;;;;;;;;;;;;;;;12.11;100.00;100759.16;5022622;28;1982;-77
2023/05/10 01:57:03;;;;;;;;;;;;;;;12.09;100.00;100763.66;5025487;28;1913;-76
2023/05/10 01:59:36;;;;;;;;;;;;;;;12.06;100.00;100766.53;5023435;28;1600;-77
2023/05/10 02:02:02;;;;;;;;;;;;;;;12.03;100.00;100760.78;5019869;28;1276;-77
2023/05/10 02:04:28;;;;;;;;;;;;;;;11.98;100.00;100763.78;5022497;28;1194;-76
2023/05/10 02:06:53;;;;;;;;;;;;;;;11.95;100.00;100764.06;5020877;28;2183;-77
2023/05/10 02:09:20;;;;;;;;;;;;;;;11.94;100.00;100772.81;5024816;28;1182;-77
2023/05/10 02:11:47;;;;;;;;;;;;;;;11.92;100.00;100772.94;5019080;28;1303;-77
2023/05/10 02:14:13;;;;;;;;;;;;;;;11.90;100.00;100774.03;5012623;28;1285;-76
2023/05/10 02:16:40;;;;;;;;;;;;;;;11.91;100.00;100778.28;5037028;28;1958;-76
2023/05/10 02:19:08;;;;;;;;;;;;;;;11.89;100.00;100768.03;5013015;28;1527;-77
2023/05/10 02:21:34;;;;;;;;;;;;;;;11.89;100.00;100769.81;5022909;28;1329;-77
2023/05/10 02:24:02;;;;;;;;;;;;;;;11.88;100.00;100778.56;5024637;28;1307;-76
2023/05/10 02:26:27;;;;;;;;;;;;;;;11.88;100.00;100783.75;5026946;28;1295;-77
2023/05/10 02:28:54;;;;;;;;;;;;;;;11.86;100.00;100777.84;5021530;28;1025;-77
2023/05/10 02:31:20;;;;;;;;;;;;;;;11.87;100.00;100779.50;5020629;28;1134;-77
2023/05/10 02:33:45;;;;;;;;;;;;;;;11.81;100.00;100777.41;5021068;28;1266;-77
2023/05/10 02:36:12;;;;;;;;;;;;;;;11.78;100.00;100782.88;5023130;28;1963;-77
2023/05/10 02:38:38;;;;;;;;;;;;;;;11.79;100.00;100789.72;5019970;28;1040;-76
2023/05/10 02:41:05;;;;;;;;;;;;;;;11.82;100.00;100779.94;5023809;28;1336;-77
2023/05/10 02:43:31;;;;;;;;;;;;;;;11.80;100.00;100786.97;5032974;28;1325;-77
2023/05/10 02:45:56;;;;;;;;;;;;;;;11.81;100.00;100785.19;5041590;28;1297;-77
2023/05/10 02:48:22;;;;;;;;;;;;;;;11.82;100.00;100789.50;5019503;28;1132;-77
2023/05/10 02:50:51;;;;;;;;;;;;;;;11.85;100.00;100791.81;5033370;28;1187;-77
2023/05/10 02:53:19;;;;;;;;;;;;;;;11.88;100.00;100788.97;5023561;28;1061;-77
2023/05/10 02:55:49;;;;;;;;;;;;;;;11.86;100.00;100789.06;5016773;28;1241;-77
2023/05/10 02:58:14;;;;;;;;;;;;;;;11.86;100.00;100780.47;5021525;28;1439;-77
2023/05/10 03:00:39;;;;;;;;;;;;;;;11.88;100.00;100783.75;5015817;28;1221;-76
2023/05/10 03:03:04;;;;;;;;;;;;;;;11.89;100.00;100782.81;5020459;28;1171;-75
2023/05/10 03:05:30;;;;;;;;;;;;;;;11.89;100.00;100785.41;5023525;28;1192;-77
2023/05/10 03:07:55;;;;;;;;;;;;;;;11.90;100.00;100779.25;5025161;28;1311;-77
2023/05/10 03:10:23;;;;;;;;;;;;;;;11.88;100.00;100788.97;5021872;28;1289;-77
2023/05/10 03:12:54;;;;;;;;;;;;;;;11.87;100.00;100787.28;5022279;28;1288;-76
2023/05/10 03:15:37;;;;;;;;;;;;;;;11.85;100.00;100789.22;5018117;28;1082;-77
2023/05/10 03:18:25;;;;;;;;;;;;;;;11.87;100.00;100787.28;5041783;28;1949;-75
2023/05/10 03:20:52;;;;;;;;;;;;;;;11.89;100.00;100793.19;5039349;28;1155;-76
2023/05/10 03:23:17;;;;;;;;;;;;;;;11.88;100.00;100789.78;5043055;28;1087;-76
2023/05/10 03:25:43;;;;;;;;;;;;;;;11.88;100.00;100797.56;5044284;28;1108;-77
2023/05/10 03:28:09;;;;;;;;;;;;;;;11.89;100.00;100801.81;5046667;28;1155;-76
2023/05/10 03:30:35;;;;;;;;;;;;;;;11.91;100.00;100801.66;5049420;28;1207;-76
2023/05/10 03:33:04;;;;;;;;;;;;;;;11.92;100.00;100798.13;5033375;28;1325;-75
2023/05/10 03:35:29;;;;;;;;;;;;;;;11.94;100.00;100798.81;5039880;28;1047;-76
2023/05/10 03:37:54;;;;;;;;;;;;;;;11.91;100.00;100799.91;5047127;28;1941;-76
2023/05/10 03:40:19;;;;;;;;;;;;;;;11.93;100.00;100807.56;5035402;28;1174;-77
2023/05/10 03:42:45;;;;;;;;;;;;;;;11.93;100.00;100798.00;5022068;28;1210;-75
2023/05/10 03:45:10;;;;;;;;;;;;;;;11.93;100.00;100807.56;5020974;28;1010;-77
2023/05/10 03:47:35;;;;;;;;;;;;;;;11.91;100.00;100806.88;5028542;28;1213;-77
2023/05/10 03:50:01;;;;;;;;;;;;;;;11.92;100.00;100805.91;5020929;28;1217;-78
2023/05/10 03:52:26;;;;;;;;;;;;;;;11.96;100.00;100807.28;5022443;28;1220;-76
2023/05/10 03:54:52;;;;;;;;;;;;;;;11.97;100.00;100808.94;5043004;28;1153;-76
2023/05/10 03:57:17;;;;;;;;;;;;;;;11.99;100.00;100809.63;5060138;28;1902;-76
2023/05/10 03:59:42;;;;;;;;;;;;;;;12.00;100.00;100811.28;5042191;28;1184;-75
2023/05/10 04:02:07;;;;;;;;;;;;;;;12.01;100.00;100815.50;5039217;28;1356;-75
2023/05/10 04:04:32;;;;;;;;;;;;;;;12.01;100.00;100819.91;5043847;28;1067;-76
2023/05/10 04:06:58;;;;;;;;;;;;;;;12.01;100.00;100820.72;5018038;28;1252;-76
2023/05/10 04:09:23;;;;;;;;;;;;;;;12.02;100.00;100827.56;5025168;28;1124;-76
2023/05/10 04:11:48;;;;;;;;;;;;;;;12.00;100.00;100819.06;5019730;28;1206;-75
2023/05/10 04:14:13;;;;;;;;;;;;;;;11.99;100.00;100821.81;5023518;28;1250;-75
2023/05/10 04:16:39;;;;;;;;;;;;;;;11.98;100.00;100820.97;5024761;28;1894;-74
2023/05/10 04:19:04;;;;;;;;;;;;;;;11.98;100.00;100820.97;5022516;28;1172;-76
2023/05/10 04:21:30;;;;;;;;;;;;;;;11.99;100.00;100827.84;5015936;28;2256;-76
2023/05/10 04:23:55;;;;;;;;;;;;;;;11.99;100.00;100821.81;5018947;28;1140;-73
2023/05/10 04:26:21;;;;;;;;;;;;;;;12.00;100.00;100824.28;5013198;28;1028;-75
2023/05/10 04:28:47;;;;;;;;;;;;;;;11.99;100.00;100827.84;5020757;28;1658;-76
2023/05/10 04:31:12;;;;;;;;;;;;;;;12.00;100.00;100826.88;5021412;28;1071;-76
2023/05/10 04:33:37;;;;;;;;;;;;;;;12.00;100.00;100824.28;5020015;28;1409;-76
2023/05/10 04:36:02;;;;;;;;;;;;;;;12.02;100.00;100827.56;5022282;28;1898;-75
2023/05/10 04:38:28;;;;;;;;;;;;;;;12.02;100.00;100822.34;5023598;28;1076;-75
2023/05/10 04:40:53;;;;;;;;;;;;;;;12.01;100.00;100825.91;5015376;28;990;-75
2023/05/10 04:43:18;;;;;;;;;;;;;;;12.02;100.00;100822.34;5024928;28;1105;-74
2023/05/10 04:45:43;;;;;;;;;;;;;;;12.01;100.00;100818.13;5020602;28;1163;-76
2023/05/10 04:48:09;;;;;;;;;;;;;;;12.02;100.00;100824.94;5029145;28;1176;-75
2023/05/10 04:50:34;;;;;;;;;;;;;;;12.02;100.00;100821.53;5026811;28;941;-76
2023/05/10 04:52:59;;;;;;;;;;;;;;;12.02;100.00;100827.56;5023999;28;1061;-75
2023/05/10 04:55:26;;;;;;;;;;;;;;;12.02;100.00;100827.56;5029651;28;1189;-75
2023/05/10 04:57:51;;;;;;;;;;;;;;;12.04;100.00;100830.81;5021647;28;1886;-76
2023/05/10 05:00:16;;;;;;;;;;;;;;;12.05;100.00;100829.91;5020408;28;1338;-76
2023/05/10 05:02:43;;;;;;;;;;;;;;;12.06;100.00;100836.72;5018905;28;1268;-75
2023/05/10 05:05:08;;;;;;;;;;;;;;;12.05;100.00;100832.50;5041465;28;1306;-75
2023/05/10 05:07:34;;;;;;;;;;;;;;;12.06;100.00;100828.94;5022058;28;1352;-75
2023/05/10 05:09:59;;;;;;;;;;;;;;;12.08;100.00;100826.19;5023719;28;1140;-76
2023/05/10 05:12:24;;;;;;;;;;;;;;;12.10;100.00;100840.72;5019934;28;1201;-75
2023/05/10 05:14:49;;;;;;;;;;;;;;;12.11;100.00;100842.34;5021602;28;1236;-75
2023/05/10 05:17:15;;;;;;;;;;;;;;;12.12;100.00;100833.59;5022309;28;1910;-76
2023/05/10 05:19:40;;;;;;;;;;;;;;;12.13;100.00;100848.22;5017433;28;1149;-76
2023/05/10 05:22:06;;;;;;;;;;;;;;;12.12;100.00;100838.78;5028211;28;1130;-76
2023/05/10 05:24:34;;;;;;;;;;;;;;;12.13;100.00;100844.81;5018891;28;1350;-76
2023/05/10 05:27:00;;;;;;;;;;;;;;;12.12;100.00;100846.59;5021635;28;1350;-76
2023/05/10 05:29:25;;;;;;;;;;;;;;;12.13;100.00;100850.81;5022560;28;1502;-77
2023/05/10 05:31:51;;;;;;;;;;;;;;;12.14;100.00;100852.47;5022576;28;1305;-76
2023/05/10 05:34:16;;;;;;;;;;;;;;;12.15;100.00;100848.09;5018935;28;1666;-72
2023/05/10 05:36:41;;;;;;;;;;;;;;;12.16;100.00;100849.75;5023814;28;1902;-71
2023/05/10 05:39:07;;;;;;;;;;;;;;;12.16;100.00;100855.78;5020974;28;1045;-69
2023/05/10 05:41:32;;;;;;;;;;;;;;;12.15;100.00;100854.09;5024665;28;1233;-71
2023/05/10 05:43:57;;;;;;;;;;;;;;;12.17;100.00;100852.22;5023035;28;1191;-70
2023/05/10 05:46:22;;;;;;;;;;;;;;;12.21;100.00;100847.53;5011282;28;1261;-70
2023/05/10 05:48:48;;;;;;;;;;;;;;;12.22;100.00;100850.03;5014550;28;1237;-72
2023/05/10 05:51:13;;;;;;;;;;;;;;;12.22;100.00;100855.22;5024016;28;1016;-70
2023/05/10 05:53:38;;;;;;;;;;;;;;;12.20;100.00;100857.13;5021241;28;1244;-76
2023/05/10 05:56:03;;;;;;;;;;;;;;;12.23;100.00;100862.06;5022040;28;1893;-70
2023/05/10 05:58:29;;;;;;;;;;;;;;;12.22;100.00;100865.63;5014051;28;1260;-73
2023/05/10 06:00:54;;;;;;;;;;;;;;;12.22;100.00;100864.81;5019708;28;1668;-69
2023/05/10 06:03:19;;;;;;;;;;;;;;;12.19;100.00;100865.88;5020263;28;1165;-70
2023/05/10 06:05:44;;;;;;;;;;;;;;;12.19;100.00;100865.88;5022888;28;1274;-75
2023/05/10 06:08:10;;;;;;;;;;;;;;;12.20;100.00;100877.09;5021998;28;1422;-72
2023/05/10 06:10:35;;;;;;;;;;;;;;;12.18;100.00;100874.66;5025997;28;1183;-70
2023/05/10 06:13:00;;;;;;;;;;;;;;;12.17;100.00;100878.22;5023966;28;1286;-69
2023/05/10 06:15:26;;;;;;;;;;;;;;;12.17;100.00;100882.59;5019889;28;1033;-69
2023/05/10 06:17:51;;;;;;;;;;;;;;;12.18;100.00;100885.06;5017342;28;1993;-69
2023/05/10 06:20:17;;;;;;;;;;;;;;;12.19;100.00;100886.69;5019585;28;1112;-70
2023/05/10 06:22:42;;;;;;;;;;;;;;;12.19;100.00;100894.50;5025096;28;1288;-69
2023/05/10 06:25:07;;;;;;;;;;;;;;;12.21;100.00;100900.41;5024877;28;1049;-69
2023/05/10 06:27:33;;;;;;;;;;;;;;;12.19;100.00;100896.28;5017008;28;1284;-69
2023/05/10 06:29:58;;;;;;;;;;;;;;;12.16;100.00;100902.56;5025487;28;1251;-69
2023/05/10 06:32:23;;;;;;;;;;;;;;;12.18;100.00;100900.66;5015441;28;993;-69
2023/05/10 06:34:48;;;;;;;;;;;;;;;12.16;100.00;100902.56;5024484;28;1392;-69
2023/05/10 06:37:14;;;;;;;;;;;;;;;12.15;100.00;100900.91;5018839;28;1894;-73
2023/05/10 06:39:39;;;;;;;;;;;;;;;12.16;100.00;100906.97;5016615;28;1467;-72
2023/05/10 06:42:05;;;;;;;;;;;;;;;12.15;100.00;100906.09;5021734;28;1133;-72
2023/05/10 06:44:30;;;;;;;;;;;;;;;12.13;100.00;100908.03;5023530;28;1129;-72
2023/05/10 06:46:55;;;;;;;;;;;;;;;12.14;100.00;100914.06;5022798;28;2010;-72
2023/05/10 06:49:20;;;;;;;;;;;;;;;12.14;100.00;100914.88;5014119;28;1419;-72
2023/05/10 06:51:46;;;;;;;;;;;;;;;12.15;100.00;100916.50;5017188;28;1332;-69
2023/05/10 06:54:11;;;;;;;;;;;;;;;12.18;100.00;100916.25;5021147;28;1291;-69
2023/05/10 06:56:36;;;;;;;;;;;;;;;12.16;100.00;100920.78;5020230;28;1973;-69
2023/05/10 06:59:02;;;;;;;;;;;;;;;12.16;100.00;100923.38;5006506;28;1196;-72
2023/05/10 07:01:27;;;;;;;;;;;;;;;12.16;100.00;100918.19;5014267;28;1201;-70
2023/05/10 07:03:53;;;;;;;;;;;;;;;12.19;100.00;100923.09;5022148;28;995;-70
2023/05/10 07:06:18;;;;;;;;;;;;;;;12.22;100.00;100922.84;5006976;28;1630;-71
2023/05/10 07:08:43;;;;;;;;;;;;;;;12.21;100.00;100925.56;5014762;28;1327;-70
2023/05/10 07:11:08;;;;;;;;;;;;;;;12.18;100.00;100924.06;5017640;28;1380;-70
2023/05/10 07:13:34;;;;;;;;;;;;;;;12.19;100.00;100928.28;5032302;28;1297;-70
2023/05/10 07:16:00;;;;;;;;;;;;;;;12.19;100.00;100922.28;5021254;28;1926;-72
2023/05/10 07:18:25;;;;;;;;;;;;;;;12.19;100.00;100932.69;5016903;28;1196;-71
2023/05/10 07:20:51;;;;;;;;;;;;;;;12.21;100.00;100936.81;5017683;28;1108;-68
2023/05/10 07:23:17;;;;;;;;;;;;;;;12.23;100.00;100940.09;5017020;28;1604;-70
2023/05/10 07:25:44;;;;;;;;;;;;;;;12.25;100.00;100939.13;5032619;28;1554;-69
2023/05/10 07:28:10;;;;;;;;;;;;;;;12.28;100.00;100944.91;5021188;28;1807;-70
2023/05/10 07:30:35;;;;;;;;;;;;;;;12.27;100.00;100947.59;5016683;28;1200;-70
2023/05/10 07:33:01;;;;;;;;;;;;;;;12.30;100.00;100949.94;5021943;28;1197;-76
2023/05/10 07:35:26;;;;;;;;;;;;;;;12.19;100.00;100949.09;5019155;28;1562;-69
2023/05/10 07:37:51;;;;;;;;;;;;;;;12.15;100.00;100947.72;5017583;28;1967;-69
2023/05/10 07:40:16;;;;;;;;;;;;;;;12.16;100.00;100949.38;5023009;28;1700;-72
2023/05/10 07:42:41;;;;;;;;;;;;;;;12.19;100.00;100949.09;5022582;28;1172;-69
2023/05/10 07:45:07;;;;;;;;;;;;;;;12.30;100.00;100950.78;5021191;28;991;-69
2023/05/10 07:47:33;;;;;;;;;;;;;;;12.23;100.00;100950.50;5017613;28;1208;-69
2023/05/10 07:49:58;;;;;;;;;;;;;;;12.27;100.00;100960.59;5011407;28;1213;-71
2023/05/10 07:52:23;;;;;;;;;;;;;;;12.29;100.00;100963.91;5025679;28;1302;-72
2023/05/10 07:54:48;;;;;;;;;;;;;;;12.35;100.00;100964.22;5016952;28;1228;-69
2023/05/10 07:57:15;;;;;;;;;;;;;;;12.38;100.00;100963.91;5014464;28;1898;-70
2023/05/10 07:59:41;;;;;;;;;;;;;;;12.47;100.00;100967.50;5015422;28;1102;-69
2023/05/10 08:02:06;;;;;;;;;;;;;;;12.45;100.00;100970.25;5015309;28;1522;-72
2023/05/10 08:04:31;;;;;;;;;;;;;;;12.43;100.00;100977.34;5016254;28;1234;-71
2023/05/10 08:06:56;;;;;;;;;;;;;;;12.42;100.00;100980.09;5019042;28;1216;-69
2023/05/10 08:09:24;;;;;;;;;;;;;;;12.35;100.00;100979.00;5023207;28;1153;-71
2023/05/10 08:11:50;;;;;;;;;;;;;;;12.25;100.00;100994.56;5018174;28;1197;-71
2023/05/10 08:14:16;;;;;;;;;;;;;;;12.18;100.00;100990.84;5022349;28;1153;-71
2023/05/10 08:16:41;;;;;;;;;;;;;;;12.17;100.00;100989.19;5018579;28;1972;-70
2023/05/10 08:19:06;;;;;;;;;;;;;;;12.22;100.00;100995.66;5025108;28;1538;-74
2023/05/10 08:21:31;;;;;;;;;;;;;;;12.18;100.00;100999.47;5018868;28;1336;-70
2023/05/10 08:23:57;;;;;;;;;;;;;;;12.37;100.00;101003.06;5023736;28;1205;-70
2023/05/10 08:26:22;;;;;;;;;;;;;;;12.17;100.00;100997.81;5019292;28;1353;-71
2023/05/10 08:28:48;;;;;;;;;;;;;;;12.14;100.00;100998.06;5024455;28;1088;-70
2023/05/10 08:31:13;;;;;;;;;;;;;;;12.14;100.00;101000.66;5025668;28;1130;-71
2023/05/10 08:33:38;;;;;;;;;;;;;;;12.16;100.00;101006.59;5022034;28;1149;-71
2023/05/10 08:36:03;;;;;;;;;;;;;;;12.18;100.00;100999.47;5022807;28;1906;-70
2023/05/10 08:38:29;;;;;;;;;;;;;;;12.22;100.00;101006.06;5027825;28;1010;-73
2023/05/10 08:40:58;;;;;;;;;;;;;;;12.23;100.00;101012.06;5017091;28;1079;-70
2023/05/10 08:43:26;;;;;;;;;;;;;;;12.26;100.00;101016.19;5025576;28;1278;-70
2023/05/10 08:45:56;;;;;;;;;;;;;;;12.30;100.00;101017.56;5024681;28;1098;-72
2023/05/10 08:48:22;;;;;;;;;;;;;;;12.34;100.00;101024.16;5027916;28;1251;-70
2023/05/10 08:50:52;;;;;;;;;;;;;;;12.37;100.00;101018.69;5019323;28;998;-70
2023/05/10 08:53:18;;;;;;;;;;;;;;;12.45;100.00;101021.47;5021604;28;2057;-70
2023/05/10 08:55:44;;;;;;;;;;;;;;;12.47;100.00;101016.94;5024116;28;1254;-70
2023/05/10 08:58:09;;;;;;;;;;;;;;;12.51;100.00;101026.13;5022374;28;1886;-71
2023/05/10 09:00:35;;;;;;;;;;;;;;;12.58;100.00;101022.03;5018087;28;1245;-71
2023/05/10 09:03:01;;;;;;;;;;;;;;;12.63;100.00;101030.28;5019895;28;1473;-70
2023/05/10 09:05:26;;;;;;;;;;;;;;;12.72;100.00;101026.03;5035337;28;1241;-72
2023/05/10 09:07:52;;;;;;;;;;;;;;;12.81;100.00;101027.03;5020795;28;1074;-70
2023/05/10 09:10:18;;;;;;;;;;;;;;;12.90;100.00;101018.38;5021770;28;1674;-70
2023/05/10 09:12:45;;;;;;;;;;;;;;;12.97;100.00;101028.13;5021274;28;1258;-71
2023/05/10 09:15:11;;;;;;;;;;;;;;;13.00;100.00;101033.06;5023198;28;1277;-70
2023/05/10 09:17:38;;;;;;;;;;;;;;;13.07;100.00;101033.34;5022908;28;1902;-70
2023/05/10 09:20:04;;;;;;;;;;;;;;;13.08;100.00;101035.00;5029175;28;1295;-70
2023/05/10 09:22:32;;;;;;;;;;;;;;;13.11;100.00;101039.94;5025828;28;1260;-72
2023/05/10 09:25:08;;;;;;;;;;;;;;;13.03;100.00;101043.22;5026125;28;1191;-70
2023/05/10 09:27:34;;;;;;;;;;;;;;;13.00;100.00;101053.06;5015427;28;1196;-70
2023/05/10 09:30:00;;;;;;;;;;;;;;;12.94;100.00;101053.63;5025277;28;1212;-71
2023/05/10 09:32:46;;;;;;;;;;;;;;;12.87;100.00;101052.50;5018211;28;1169;-71
2023/05/10 09:35:14;;;;;;;;;;;;;;;12.85;100.00;101049.22;5025420;28;1312;-75
2023/05/10 09:37:42;;;;;;;;;;;;;;;12.88;100.00;101054.16;5018531;28;1945;-70
2023/05/10 09:40:11;;;;;;;;;;;;;;;12.94;100.00;101058.81;5016332;28;1229;-70
2023/05/10 09:42:39;;;;;;;;;;;;;;;12.96;100.00;101062.09;5019892;28;1221;-69
2023/05/10 09:45:05;;;;;;;;;;;;;;;13.05;100.00;101063.91;5013047;28;2068;-72
2023/05/10 09:47:37;;;;;;;;;;;;;;;13.12;100.00;101062.41;5014822;28;2376;-72
2023/05/10 09:50:04;;;;;;;;;;;;;;;13.21;100.00;101061.63;5015609;28;2390;-71
2023/05/10 09:52:30;;;;;;;;;;;;;;;13.29;100.00;101069.56;5018761;28;1955;-70
2023/05/10 09:54:56;;;;;;;;;;;;;;;13.34;100.00;101068.34;5016752;28;2531;-71
2023/05/10 09:57:22;;;;;;;;;;;;;;;13.39;100.00;101068.75;5017555;28;2176;-69
2023/05/10 09:59:48;;;;;;;;;;;;;;;13.47;100.00;101071.50;5015884;28;1989;-69
2023/05/10 10:02:13;;;;;;;;;;;;;;;13.56;100.00;101068.06;5016551;28;2160;-73
2023/05/10 10:04:39;;;;;;;;;;;;;;;13.61;100.00;101068.47;5020265;28;1933;-71
2023/05/10 10:07:05;;;;;;;;;;;;;;;13.63;100.00;101076.97;5027585;28;1124;-68
2023/05/10 10:09:31;;;;;;;;;;;;;;;13.67;100.00;101073.13;5024520;28;989;-70
2023/05/10 10:11:56;;;;;;;;;;;;;;;13.70;100.00;101075.44;5023858;28;1188;-70
2023/05/10 10:14:23;;;;;;;;;;;;;;;13.77;100.00;101079.16;5037323;28;1266;-70
2023/05/10 10:16:49;;;;;;;;;;;;;;;13.76;100.00;101087.94;5018995;28;1894;-69
2023/05/10 10:19:15;;;;;;;;;;;;;;;13.79;100.00;101082.44;5021245;28;1559;-69
2023/05/10 10:21:40;;;;;;;;;;;;;;;13.86;98.61;101087.09;5016101;28;1190;-69
2023/05/10 10:24:06;;;;;;;;;;;;;;;13.94;100.00;101092.44;5013677;28;2618;-74
2023/05/10 10:26:34;;;;;;;;;;;;;;;14.02;100.00;101087.34;5013747;28;2194;-69
2023/05/10 10:29:12;;;;;;;;;;;;;;;14.10;100.00;101087.44;5018774;28;1914;-72
2023/05/10 10:31:45;;;;;;;;;;;;;;;14.22;100.00;101083.72;5022205;28;1437;-71
2023/05/10 10:34:17;;;;;;;;;;;;;;;14.32;100.00;101084.50;5010746;28;2374;-70
2023/05/10 10:36:44;;;;;;;;;;;;;;;14.37;100.00;101078.03;5013357;28;2137;-70
2023/05/10 10:39:10;;;;;;;;;;;;;;;14.42;100.00;101083.66;5016471;28;1953;-69
2023/05/10 10:41:36;;;;;;;;;;;;;;;14.47;100.00;101086.69;5012564;28;1873;-70
2023/05/10 10:44:20;;;;;;;;;;;;;;;14.51;99.58;101082.81;5022137;28;1125;-68
2023/05/10 10:47:00;;;;;;;;;;;;;;;14.43;100.00;101080.06;5011362;28;1314;-71
2023/05/10 10:49:26;;;;;;;;;;;;;;;14.49;100.00;101079.50;5020829;28;1209;-68
2023/05/10 10:52:10;;;;;;;;;;;;;;;14.54;100.00;101077.28;5014897;28;2515;-69
2023/05/10 10:54:35;;;;;;;;;;;;;;;14.58;99.67;101083.88;5018432;28;1974;-68
2023/05/10 10:57:11;;;;;;;;;;;;;;;14.74;95.84;101078.84;5013940;28;2405;-70
2023/05/10 10:59:40;;;;;;;;;;;;;;;14.49;97.86;101079.50;5016010;28;1925;-71
2023/05/10 11:02:06;;;;;;;;;;;;;;;14.51;97.15;101082.81;5013525;28;2443;-68
2023/05/10 11:04:41;;;;;;;;;;;;;;;14.48;97.61;101077.88;5013394;28;2022;-71
2023/05/10 11:07:16;;;;;;;;;;;;;;;14.51;98.47;101085.44;5015466;28;1955;-69
2023/05/10 11:09:42;;;;;;;;;;;;;;;14.62;97.60;101082.59;5014067;28;2315;-71
2023/05/10 11:12:10;;;;;;;;;;;;;;;14.60;97.92;101092.38;5014817;28;2428;-69
2023/05/10 11:14:35;;;;;;;;;;;;;;;14.62;96.88;101090.44;5014214;28;2223;-71
2023/05/10 11:17:01;;;;;;;;;;;;;;;14.59;96.91;101095.97;5014764;28;1935;-69
2023/05/10 11:19:29;;;;;;;;;;;;;;;14.60;97.64;101093.19;5012620;28;1938;-70
2023/05/10 11:22:03;;;;;;;;;;;;;;;14.64;97.63;101104.19;5014846;28;1914;-72
2023/05/10 11:24:29;;;;;;;;;;;;;;;14.67;97.74;101098.66;5016796;28;1890;-69
2023/05/10 11:26:54;;;;;;;;;;;;;;;14.70;97.71;101097.56;5020578;28;1181;-73
2023/05/10 11:29:20;;;;;;;;;;;;;;;14.70;97.31;101095.78;5009097;28;2669;-69
2023/05/10 11:31:46;;;;;;;;;;;;;;;14.70;97.30;101095.78;5017293;28;2219;-70
2023/05/10 11:34:22;;;;;;;;;;;;;;;14.73;96.25;101108.53;5014912;28;2525;-69
2023/05/10 11:36:50;;;;;;;;;;;;;;;14.74;96.45;101104.97;5032804;28;1951;-73
2023/05/10 11:39:15;;;;;;;;;;;;;;;14.75;96.71;101104.00;5032803;28;2244;-69
2023/05/10 11:41:41;;;;;;;;;;;;;;;14.77;96.32;101115.09;5014332;28;1870;-72
2023/05/10 11:44:08;;;;;;;;;;;;;;;14.74;96.59;101104.16;5019215;28;2020;-69
2023/05/10 11:46:34;;;;;;;;;;;;;;;14.74;96.37;101104.97;5012839;28;1066;-71
2023/05/10 11:49:01;;;;;;;;;;;;;;;14.77;96.47;101112.50;5014282;28;1247;-72
2023/05/10 11:51:26;;;;;;;;;;;;;;;14.75;96.63;101111.81;5009369;28;1476;-70
2023/05/10 11:53:55;;;;;;;;;;;;;;;14.74;96.68;101115.41;5017167;28;1174;-71
2023/05/10 11:56:21;;;;;;;;;;;;;;;14.76;96.12;101107.44;5011153;28;2411;-73
2023/05/10 11:58:52;;;;;;;;;;;;;;;14.77;95.39;101120.31;5013850;28;1311;-72
2023/05/10 12:01:17;;;;;;;;;;;;;;;14.66;95.92;101120.50;5017821;28;1231;-70
2023/05/10 12:03:43;;;;;;;;;;;;;;;14.65;96.52;101120.66;5009708;28;2678;-71
2023/05/10 12:06:08;;;;;;;;;;;;;;;14.61;96.22;101125.34;5015951;28;1950;-69
2023/05/10 12:08:33;;;;;;;;;;;;;;;14.59;96.38;101117.66;5015520;28;2388;-69
2023/05/10 12:11:07;;;;;;;;;;;;;;;14.59;96.71;101119.47;5032405;28;2364;-71
2023/05/10 12:13:32;;;;;;;;;;;;;;;14.54;96.65;101124.28;5021072;28;1069;-69
2023/05/10 12:15:57;;;;;;;;;;;;;;;14.52;96.51;101123.63;5015082;28;2479;-71
2023/05/10 12:18:24;;;;;;;;;;;;;;;14.47;96.60;101128.44;5017612;28;2065;-71
2023/05/10 12:20:51;;;;;;;;;;;;;;;14.42;97.19;101130.63;5016625;28;2301;-69
2023/05/10 12:23:17;;;;;;;;;;;;;;;14.42;97.09;101128.00;5014810;28;1918;-71
2023/05/10 12:25:42;;;;;;;;;;;;;;;14.45;97.07;101131.16;5014846;28;2176;-74
2023/05/10 12:28:08;;;;;;;;;;;;;;;14.45;96.95;101130.31;5017331;28;2175;-70
2023/05/10 12:30:34;;;;;;;;;;;;;;;14.37;97.12;101133.66;5013038;28;1904;-72
2023/05/10 12:33:07;;;;;;;;;;;;;;;14.34;97.67;101133.94;5015211;28;2081;-71
2023/05/10 12:35:32;;;;;;;;;;;;;;;14.35;98.07;101131.19;5010246;28;1901;-70